sensor_id;sensor_type;location;lat;lon;timestamp;P1;durP1;ratioP1;P2;durP2;ratioP2
65071;SDS011;51663;52.310;17.016;2022-08-19T00:02:58;20.50;;;15.63;;
65071;SDS011;51663;52.310;17.016;2022-08-19T00:06:00;18.00;;;16.10;;
65071;SDS011;51663;52.310;17.016;2022-08-19T00:09:03;20.00;;;16.00;;
65071;SDS011;51663;52.310;17.016;2022-08-19T00:12:07;18.73;;;16.08;;
65071;SDS011;51663;52.310;17.016;2022-08-19T00:15:11;17.33;;;15.70;;
65071;SDS011;51663;52.310;17.016;2022-08-19T00:18:15;16.50;;;13.90;;
65071;SDS011;51663;52.310;17.016;2022-08-19T00:21:17;17.80;;;15.75;;
65071;SDS011;51663;52.310;17.016;2022-08-19T00:24:19;18.50;;;15.38;;
65071;SDS011;51663;52.310;17.016;2022-08-19T00:27:21;18.00;;;16.10;;
65071;SDS011;51663;52.310;17.016;2022-08-19T00:30:26;18.88;;;16.30;;
65071;SDS011;51663;52.310;17.016;2022-08-19T00:33:29;17.13;;;13.85;;
65071;SDS011;51663;52.310;17.016;2022-08-19T00:36:33;16.50;;;14.77;;
65071;SDS011;51663;52.310;17.016;2022-08-19T00:39:36;29.55;;;15.63;;
65071;SDS011;51663;52.310;17.016;2022-08-19T00:42:39;17.85;;;14.80;;
65071;SDS011;51663;52.310;17.016;2022-08-19T00:45:42;16.15;;;14.45;;
65071;SDS011;51663;52.310;17.016;2022-08-19T00:48:44;15.90;;;14.32;;
65071;SDS011;51663;52.310;17.016;2022-08-19T00:51:47;17.83;;;14.82;;
65071;SDS011;51663;52.310;17.016;2022-08-19T00:54:54;16.88;;;15.07;;
65071;SDS011;51663;52.310;17.016;2022-08-19T00:58:03;16.05;;;14.63;;
65071;SDS011;51663;52.310;17.016;2022-08-19T01:01:08;15.25;;;13.63;;
65071;SDS011;51663;52.310;17.016;2022-08-19T01:04:12;15.10;;;13.60;;
65071;SDS011;51663;52.310;17.016;2022-08-19T01:07:14;15.30;;;13.90;;
65071;SDS011;51663;52.310;17.016;2022-08-19T01:10:22;15.82;;;14.27;;
65071;SDS011;51663;52.310;17.016;2022-08-19T01:13:28;16.33;;;14.90;;
65071;SDS011;51663;52.310;17.016;2022-08-19T01:16:51;16.27;;;14.70;;
65071;SDS011;51663;52.310;17.016;2022-08-19T01:19:55;16.40;;;14.55;;
65071;SDS011;51663;52.310;17.016;2022-08-19T01:22:58;15.63;;;14.13;;
65071;SDS011;51663;52.310;17.016;2022-08-19T01:26:00;16.88;;;14.40;;
65071;SDS011;51663;52.310;17.016;2022-08-19T01:29:02;15.27;;;13.98;;
65071;SDS011;51663;52.310;17.016;2022-08-19T01:32:06;16.25;;;14.07;;
65071;SDS011;51663;52.310;17.016;2022-08-19T01:35:30;15.00;;;13.32;;
65071;SDS011;51663;52.310;17.016;2022-08-19T01:38:35;17.73;;;15.90;;
65071;SDS011;51663;52.310;17.016;2022-08-19T01:41:44;18.63;;;15.50;;
65071;SDS011;51663;52.310;17.016;2022-08-19T01:44:47;17.05;;;15.05;;
65071;SDS011;51663;52.310;17.016;2022-08-19T01:47:50;17.25;;;15.45;;
65071;SDS011;51663;52.310;17.016;2022-08-19T01:51:02;16.70;;;15.10;;
65071;SDS011;51663;52.310;17.016;2022-08-19T01:54:05;15.57;;;14.18;;
65071;SDS011;51663;52.310;17.016;2022-08-19T01:57:12;15.73;;;14.25;;
65071;SDS011;51663;52.310;17.016;2022-08-19T02:00:17;15.60;;;14.20;;
65071;SDS011;51663;52.310;17.016;2022-08-19T02:03:20;16.52;;;14.90;;
65071;SDS011;51663;52.310;17.016;2022-08-19T02:06:24;16.10;;;14.45;;
65071;SDS011;51663;52.310;17.016;2022-08-19T02:09:27;18.60;;;14.70;;
65071;SDS011;51663;52.310;17.016;2022-08-19T02:12:29;14.68;;;12.57;;
65071;SDS011;51663;52.310;17.016;2022-08-19T02:15:31;16.45;;;14.75;;
65071;SDS011;51663;52.310;17.016;2022-08-19T02:18:34;14.73;;;13.43;;
65071;SDS011;51663;52.310;17.016;2022-08-19T02:21:36;14.65;;;13.27;;
65071;SDS011;51663;52.310;17.016;2022-08-19T02:24:39;14.48;;;12.98;;
65071;SDS011;51663;52.310;17.016;2022-08-19T02:27:41;12.98;;;11.73;;
65071;SDS011;51663;52.310;17.016;2022-08-19T02:30:43;14.55;;;13.05;;
65071;SDS011;51663;52.310;17.016;2022-08-19T02:33:46;13.27;;;12.07;;
65071;SDS011;51663;52.310;17.016;2022-08-19T02:36:49;13.93;;;12.63;;
65071;SDS011;51663;52.310;17.016;2022-08-19T02:39:52;14.13;;;11.93;;
65071;SDS011;51663;52.310;17.016;2022-08-19T02:42:55;15.13;;;13.60;;
65071;SDS011;51663;52.310;17.016;2022-08-19T02:45:57;14.95;;;13.48;;
65071;SDS011;51663;52.310;17.016;2022-08-19T02:49:01;16.25;;;14.57;;
65071;SDS011;51663;52.310;17.016;2022-08-19T02:52:06;15.40;;;13.80;;
65071;SDS011;51663;52.310;17.016;2022-08-19T02:55:09;17.50;;;14.27;;
65071;SDS011;51663;52.310;17.016;2022-08-19T02:58:11;15.23;;;13.80;;
65071;SDS011;51663;52.310;17.016;2022-08-19T03:01:22;14.20;;;12.57;;
65071;SDS011;51663;52.310;17.016;2022-08-19T03:04:32;15.30;;;13.55;;
65071;SDS011;51663;52.310;17.016;2022-08-19T03:07:35;16.52;;;14.73;;
65071;SDS011;51663;52.310;17.016;2022-08-19T03:10:41;14.98;;;13.52;;
65071;SDS011;51663;52.310;17.016;2022-08-19T03:13:45;14.68;;;13.38;;
65071;SDS011;51663;52.310;17.016;2022-08-19T03:16:51;15.75;;;13.65;;
65071;SDS011;51663;52.310;17.016;2022-08-19T03:19:54;15.05;;;13.55;;
65071;SDS011;51663;52.310;17.016;2022-08-19T03:22:56;14.48;;;12.93;;
65071;SDS011;51663;52.310;17.016;2022-08-19T03:25:59;18.25;;;13.77;;
65071;SDS011;51663;52.310;17.016;2022-08-19T03:29:17;14.52;;;13.23;;
65071;SDS011;51663;52.310;17.016;2022-08-19T03:32:31;15.13;;;13.60;;
65071;SDS011;51663;52.310;17.016;2022-08-19T03:35:33;15.13;;;13.48;;
65071;SDS011;51663;52.310;17.016;2022-08-19T03:38:42;13.73;;;12.40;;
65071;SDS011;51663;52.310;17.016;2022-08-19T03:41:47;15.52;;;14.00;;
65071;SDS011;51663;52.310;17.016;2022-08-19T03:45:13;14.93;;;13.50;;
65071;SDS011;51663;52.310;17.016;2022-08-19T03:48:15;15.55;;;13.50;;
65071;SDS011;51663;52.310;17.016;2022-08-19T03:51:22;15.95;;;13.48;;
65071;SDS011;51663;52.310;17.016;2022-08-19T03:54:31;15.50;;;13.93;;
65071;SDS011;51663;52.310;17.016;2022-08-19T03:57:36;17.40;;;14.98;;
65071;SDS011;51663;52.310;17.016;2022-08-19T04:00:41;25.67;;;15.88;;
65071;SDS011;51663;52.310;17.016;2022-08-19T04:03:44;17.40;;;14.60;;
65071;SDS011;51663;52.310;17.016;2022-08-19T04:06:50;15.27;;;13.80;;
65071;SDS011;51663;52.310;17.016;2022-08-19T04:09:53;14.48;;;12.95;;
65071;SDS011;51663;52.310;17.016;2022-08-19T04:12:55;16.73;;;15.02;;
65071;SDS011;51663;52.310;17.016;2022-08-19T04:15:57;15.73;;;13.95;;
65071;SDS011;51663;52.310;17.016;2022-08-19T04:18:59;16.67;;;15.05;;
65071;SDS011;51663;52.310;17.016;2022-08-19T04:22:03;16.55;;;14.82;;
65071;SDS011;51663;52.310;17.016;2022-08-19T04:25:05;17.33;;;15.45;;
65071;SDS011;51663;52.310;17.016;2022-08-19T04:28:08;17.75;;;14.70;;
65071;SDS011;51663;52.310;17.016;2022-08-19T04:31:15;18.05;;;14.15;;
65071;SDS011;51663;52.310;17.016;2022-08-19T04:34:20;25.00;;;16.02;;
65071;SDS011;51663;52.310;17.016;2022-08-19T04:37:24;16.10;;;14.40;;
65071;SDS011;51663;52.310;17.016;2022-08-19T04:40:39;14.75;;;13.40;;
65071;SDS011;51663;52.310;17.016;2022-08-19T04:44:02;14.57;;;13.30;;
65071;SDS011;51663;52.310;17.016;2022-08-19T04:47:05;18.02;;;13.30;;
65071;SDS011;51663;52.310;17.016;2022-08-19T04:50:11;30.00;;;14.30;;
65071;SDS011;51663;52.310;17.016;2022-08-19T04:53:14;15.23;;;13.75;;
65071;SDS011;51663;52.310;17.016;2022-08-19T04:56:16;17.63;;;14.20;;
65071;SDS011;51663;52.310;17.016;2022-08-19T04:59:21;15.27;;;12.60;;
65071;SDS011;51663;52.310;17.016;2022-08-19T05:02:23;15.85;;;14.27;;
65071;SDS011;51663;52.310;17.016;2022-08-19T05:05:26;18.27;;;14.70;;
65071;SDS011;51663;52.310;17.016;2022-08-19T05:08:28;15.85;;;13.55;;
65071;SDS011;51663;52.310;17.016;2022-08-19T05:11:33;14.02;;;12.68;;
65071;SDS011;51663;52.310;17.016;2022-08-19T05:14:38;17.73;;;13.63;;
65071;SDS011;51663;52.310;17.016;2022-08-19T05:17:40;18.13;;;13.88;;
65071;SDS011;51663;52.310;17.016;2022-08-19T05:21:07;14.93;;;13.40;;
65071;SDS011;51663;52.310;17.016;2022-08-19T05:24:29;26.75;;;13.55;;
65071;SDS011;51663;52.310;17.016;2022-08-19T05:27:31;15.77;;;12.75;;
65071;SDS011;51663;52.310;17.016;2022-08-19T05:30:34;13.40;;;12.07;;
65071;SDS011;51663;52.310;17.016;2022-08-19T05:33:47;13.15;;;11.65;;
65071;SDS011;51663;52.310;17.016;2022-08-19T05:36:55;17.77;;;13.23;;
65071;SDS011;51663;52.310;17.016;2022-08-19T05:39:59;13.85;;;12.70;;
65071;SDS011;51663;52.310;17.016;2022-08-19T05:43:02;13.85;;;12.55;;
65071;SDS011;51663;52.310;17.016;2022-08-19T05:46:05;14.55;;;13.27;;
65071;SDS011;51663;52.310;17.016;2022-08-19T05:49:08;18.17;;;14.02;;
65071;SDS011;51663;52.310;17.016;2022-08-19T05:52:11;30.17;;;13.70;;
65071;SDS011;51663;52.310;17.016;2022-08-19T05:55:19;14.70;;;12.88;;
65071;SDS011;51663;52.310;17.016;2022-08-19T05:58:22;26.75;;;13.80;;
65071;SDS011;51663;52.310;17.016;2022-08-19T06:01:28;15.70;;;12.77;;
65071;SDS011;51663;52.310;17.016;2022-08-19T06:04:30;14.40;;;13.00;;
65071;SDS011;51663;52.310;17.016;2022-08-19T06:07:32;16.77;;;12.18;;
65071;SDS011;51663;52.310;17.016;2022-08-19T06:10:39;23.65;;;11.98;;
65071;SDS011;51663;52.310;17.016;2022-08-19T06:13:42;18.00;;;11.70;;
65071;SDS011;51663;52.310;17.016;2022-08-19T06:16:46;18.02;;;12.32;;
65071;SDS011;51663;52.310;17.016;2022-08-19T06:19:48;12.45;;;11.20;;
65071;SDS011;51663;52.310;17.016;2022-08-19T06:22:51;13.90;;;11.48;;
65071;SDS011;51663;52.310;17.016;2022-08-19T06:25:54;12.32;;;11.23;;
65071;SDS011;51663;52.310;17.016;2022-08-19T06:28:56;13.88;;;12.48;;
65071;SDS011;51663;52.310;17.016;2022-08-19T06:31:59;14.00;;;12.52;;
65071;SDS011;51663;52.310;17.016;2022-08-19T06:35:03;14.50;;;11.85;;
65071;SDS011;51663;52.310;17.016;2022-08-19T06:38:07;22.40;;;12.85;;
65071;SDS011;51663;52.310;17.016;2022-08-19T06:41:10;16.58;;;12.40;;
65071;SDS011;51663;52.310;17.016;2022-08-19T06:44:13;12.68;;;11.57;;
65071;SDS011;51663;52.310;17.016;2022-08-19T06:47:18;11.80;;;10.68;;
65071;SDS011;51663;52.310;17.016;2022-08-19T06:50:25;14.30;;;11.40;;
65071;SDS011;51663;52.310;17.016;2022-08-19T06:53:27;12.73;;;11.60;;
65071;SDS011;51663;52.310;17.016;2022-08-19T06:56:31;14.63;;;11.45;;
65071;SDS011;51663;52.310;17.016;2022-08-19T06:59:36;12.52;;;11.27;;
65071;SDS011;51663;52.310;17.016;2022-08-19T07:02:39;23.48;;;12.48;;
65071;SDS011;51663;52.310;17.016;2022-08-19T07:05:43;12.30;;;11.02;;
65071;SDS011;51663;52.310;17.016;2022-08-19T07:08:47;13.57;;;12.18;;
65071;SDS011;51663;52.310;17.016;2022-08-19T07:11:50;27.42;;;13.68;;
65071;SDS011;51663;52.310;17.016;2022-08-19T07:14:54;13.90;;;12.43;;
65071;SDS011;51663;52.310;17.016;2022-08-19T07:17:56;14.25;;;12.35;;
65071;SDS011;51663;52.310;17.016;2022-08-19T07:21:04;14.13;;;12.73;;
65071;SDS011;51663;52.310;17.016;2022-08-19T07:24:09;16.02;;;12.20;;
65071;SDS011;51663;52.310;17.016;2022-08-19T07:27:13;26.33;;;12.85;;
65071;SDS011;51663;52.310;17.016;2022-08-19T07:30:16;13.63;;;12.43;;
65071;SDS011;51663;52.310;17.016;2022-08-19T07:33:18;12.73;;;11.60;;
65071;SDS011;51663;52.310;17.016;2022-08-19T07:36:22;12.70;;;11.50;;
65071;SDS011;51663;52.310;17.016;2022-08-19T07:39:28;12.90;;;11.77;;
65071;SDS011;51663;52.310;17.016;2022-08-19T07:42:32;14.18;;;12.43;;
65071;SDS011;51663;52.310;17.016;2022-08-19T07:45:34;12.80;;;11.65;;
65071;SDS011;51663;52.310;17.016;2022-08-19T07:48:36;13.52;;;12.48;;
65071;SDS011;51663;52.310;17.016;2022-08-19T07:51:38;36.42;;;13.35;;
65071;SDS011;51663;52.310;17.016;2022-08-19T07:54:40;14.77;;;12.13;;
65071;SDS011;51663;52.310;17.016;2022-08-19T07:57:42;16.10;;;12.65;;
65071;SDS011;51663;52.310;17.016;2022-08-19T08:00:50;13.45;;;11.98;;
65071;SDS011;51663;52.310;17.016;2022-08-19T08:03:53;13.75;;;12.20;;
65071;SDS011;51663;52.310;17.016;2022-08-19T08:07:15;18.27;;;12.20;;
65071;SDS011;51663;52.310;17.016;2022-08-19T08:10:36;15.40;;;12.98;;
65071;SDS011;51663;52.310;17.016;2022-08-19T08:13:39;71.00;;;17.45;;
65071;SDS011;51663;52.310;17.016;2022-08-19T08:16:42;13.70;;;12.50;;
65071;SDS011;51663;52.310;17.016;2022-08-19T08:19:48;14.88;;;12.48;;
65071;SDS011;51663;52.310;17.016;2022-08-19T08:22:52;13.18;;;12.10;;
65071;SDS011;51663;52.310;17.016;2022-08-19T08:26:13;13.80;;;12.57;;
65071;SDS011;51663;52.310;17.016;2022-08-19T08:29:16;24.75;;;13.70;;
65071;SDS011;51663;52.310;17.016;2022-08-19T08:32:20;14.80;;;13.68;;
65071;SDS011;51663;52.310;17.016;2022-08-19T08:35:22;14.93;;;13.65;;
65071;SDS011;51663;52.310;17.016;2022-08-19T08:38:25;14.40;;;13.00;;
65071;SDS011;51663;52.310;17.016;2022-08-19T08:41:38;15.32;;;14.00;;
65071;SDS011;51663;52.310;17.016;2022-08-19T08:45:06;14.85;;;13.60;;
65071;SDS011;51663;52.310;17.016;2022-08-19T08:48:18;16.27;;;14.88;;
65071;SDS011;51663;52.310;17.016;2022-08-19T08:51:28;16.85;;;14.25;;
65071;SDS011;51663;52.310;17.016;2022-08-19T08:54:48;16.63;;;13.60;;
65071;SDS011;51663;52.310;17.016;2022-08-19T08:57:59;16.05;;;14.50;;
65071;SDS011;51663;52.310;17.016;2022-08-19T09:01:16;16.35;;;14.75;;
65071;SDS011;51663;52.310;17.016;2022-08-19T09:04:31;15.68;;;14.27;;
65071;SDS011;51663;52.310;17.016;2022-08-19T09:07:46;15.93;;;14.38;;
65071;SDS011;51663;52.310;17.016;2022-08-19T09:11:06;16.23;;;13.43;;
65071;SDS011;51663;52.310;17.016;2022-08-19T09:18:00;15.32;;;14.02;;
65071;SDS011;51663;52.310;17.016;2022-08-19T09:21:07;15.00;;;13.55;;
65071;SDS011;51663;52.310;17.016;2022-08-19T09:24:10;15.32;;;13.52;;
65071;SDS011;51663;52.310;17.016;2022-08-19T09:27:12;15.10;;;13.52;;
65071;SDS011;51663;52.310;17.016;2022-08-19T09:30:21;16.73;;;14.00;;
65071;SDS011;51663;52.310;17.016;2022-08-19T09:33:26;15.13;;;13.57;;
65071;SDS011;51663;52.310;17.016;2022-08-19T09:36:30;14.23;;;12.93;;
65071;SDS011;51663;52.310;17.016;2022-08-19T09:39:37;14.48;;;12.98;;
65071;SDS011;51663;52.310;17.016;2022-08-19T09:42:43;22.52;;;19.52;;
65071;SDS011;51663;52.310;17.016;2022-08-19T09:45:52;15.50;;;12.73;;
65071;SDS011;51663;52.310;17.016;2022-08-19T09:48:54;14.77;;;13.50;;
65071;SDS011;51663;52.310;17.016;2022-08-19T09:52:10;15.65;;;13.38;;
65071;SDS011;51663;52.310;17.016;2022-08-19T09:55:14;17.95;;;13.02;;
65071;SDS011;51663;52.310;17.016;2022-08-19T09:58:18;14.90;;;12.45;;
65071;SDS011;51663;52.310;17.016;2022-08-19T10:01:27;13.45;;;12.15;;
65071;SDS011;51663;52.310;17.016;2022-08-19T10:04:30;14.10;;;12.48;;
65071;SDS011;51663;52.310;17.016;2022-08-19T10:07:51;13.32;;;11.98;;
65071;SDS011;51663;52.310;17.016;2022-08-19T10:10:54;13.07;;;11.80;;
65071;SDS011;51663;52.310;17.016;2022-08-19T10:13:59;14.38;;;11.20;;
65071;SDS011;51663;52.310;17.016;2022-08-19T10:17:03;12.15;;;11.18;;
65071;SDS011;51663;52.310;17.016;2022-08-19T10:20:21;13.85;;;11.93;;
65071;SDS011;51663;52.310;17.016;2022-08-19T10:23:24;12.23;;;11.30;;
65071;SDS011;51663;52.310;17.016;2022-08-19T10:26:29;12.43;;;11.38;;
65071;SDS011;51663;52.310;17.016;2022-08-19T10:29:34;13.50;;;12.05;;
65071;SDS011;51663;52.310;17.016;2022-08-19T10:32:46;12.63;;;11.52;;
65071;SDS011;51663;52.310;17.016;2022-08-19T10:35:48;11.10;;;10.05;;
65071;SDS011;51663;52.310;17.016;2022-08-19T10:38:58;10.25;;;8.65;;
65071;SDS011;51663;52.310;17.016;2022-08-19T10:42:06;11.43;;;9.55;;
65071;SDS011;51663;52.310;17.016;2022-08-19T10:45:12;10.65;;;9.85;;
65071;SDS011;51663;52.310;17.016;2022-08-19T10:48:14;12.60;;;10.48;;
65071;SDS011;51663;52.310;17.016;2022-08-19T10:51:20;11.43;;;10.25;;
65071;SDS011;51663;52.310;17.016;2022-08-19T10:54:49;10.02;;;8.93;;
65071;SDS011;51663;52.310;17.016;2022-08-19T10:58:12;10.13;;;9.27;;
65071;SDS011;51663;52.310;17.016;2022-08-19T11:01:16;12.02;;;10.93;;
65071;SDS011;51663;52.310;17.016;2022-08-19T11:04:18;12.25;;;9.27;;
65071;SDS011;51663;52.310;17.016;2022-08-19T11:07:21;12.73;;;9.20;;
65071;SDS011;51663;52.310;17.016;2022-08-19T11:10:26;10.13;;;9.10;;
65071;SDS011;51663;52.310;17.016;2022-08-19T11:13:29;23.23;;;10.93;;
65071;SDS011;51663;52.310;17.016;2022-08-19T11:16:39;9.40;;;8.68;;
65071;SDS011;51663;52.310;17.016;2022-08-19T11:19:42;14.68;;;10.43;;
65071;SDS011;51663;52.310;17.016;2022-08-19T11:22:44;12.15;;;10.25;;
65071;SDS011;51663;52.310;17.016;2022-08-19T11:25:48;12.10;;;9.15;;
65071;SDS011;51663;52.310;17.016;2022-08-19T11:28:51;10.85;;;8.98;;
65071;SDS011;51663;52.310;17.016;2022-08-19T11:31:55;14.07;;;9.43;;
65071;SDS011;51663;52.310;17.016;2022-08-19T11:34:58;10.45;;;8.50;;
65071;SDS011;51663;52.310;17.016;2022-08-19T11:38:00;9.45;;;8.68;;
65071;SDS011;51663;52.310;17.016;2022-08-19T11:41:08;9.85;;;8.93;;
65071;SDS011;51663;52.310;17.016;2022-08-19T11:44:10;9.45;;;8.65;;
65071;SDS011;51663;52.310;17.016;2022-08-19T11:47:15;11.20;;;8.85;;
65071;SDS011;51663;52.310;17.016;2022-08-19T11:50:17;9.23;;;8.48;;
65071;SDS011;51663;52.310;17.016;2022-08-19T11:53:20;11.48;;;9.05;;
65071;SDS011;51663;52.310;17.016;2022-08-19T11:56:22;10.45;;;8.65;;
65071;SDS011;51663;52.310;17.016;2022-08-19T11:59:26;12.07;;;8.65;;
65071;SDS011;51663;52.310;17.016;2022-08-19T12:02:30;10.93;;;8.45;;
65071;SDS011;51663;52.310;17.016;2022-08-19T12:05:32;8.90;;;8.02;;
65071;SDS011;51663;52.310;17.016;2022-08-19T12:08:35;13.40;;;9.43;;
65071;SDS011;51663;52.310;17.016;2022-08-19T12:11:38;14.98;;;9.70;;
65071;SDS011;51663;52.310;17.016;2022-08-19T12:14:40;13.18;;;11.80;;
65071;SDS011;51663;52.310;17.016;2022-08-19T12:17:42;11.15;;;10.10;;
65071;SDS011;51663;52.310;17.016;2022-08-19T12:20:45;9.88;;;8.98;;
65071;SDS011;51663;52.310;17.016;2022-08-19T12:23:48;8.75;;;8.05;;
65071;SDS011;51663;52.310;17.016;2022-08-19T12:26:56;10.98;;;8.27;;
65071;SDS011;51663;52.310;17.016;2022-08-19T12:30:03;8.98;;;8.10;;
65071;SDS011;51663;52.310;17.016;2022-08-19T12:33:07;9.45;;;8.50;;
65071;SDS011;51663;52.310;17.016;2022-08-19T12:36:10;9.18;;;8.48;;
65071;SDS011;51663;52.310;17.016;2022-08-19T12:39:14;11.07;;;9.48;;
65071;SDS011;51663;52.310;17.016;2022-08-19T12:42:16;11.98;;;9.25;;
65071;SDS011;51663;52.310;17.016;2022-08-19T12:45:19;10.57;;;9.77;;
65071;SDS011;51663;52.310;17.016;2022-08-19T12:48:21;10.48;;;9.30;;
65071;SDS011;51663;52.310;17.016;2022-08-19T12:51:35;14.63;;;10.07;;
65071;SDS011;51663;52.310;17.016;2022-08-19T12:54:37;16.00;;;10.55;;
65071;SDS011;51663;52.310;17.016;2022-08-19T12:57:39;13.80;;;11.20;;
65071;SDS011;51663;52.310;17.016;2022-08-19T13:00:41;12.00;;;10.80;;
65071;SDS011;51663;52.310;17.016;2022-08-19T13:03:46;12.02;;;10.88;;
65071;SDS011;51663;52.310;17.016;2022-08-19T13:06:51;14.25;;;10.07;;
65071;SDS011;51663;52.310;17.016;2022-08-19T13:09:53;12.55;;;11.23;;
65071;SDS011;51663;52.310;17.016;2022-08-19T13:12:55;13.57;;;11.93;;
65071;SDS011;51663;52.310;17.016;2022-08-19T13:16:02;13.43;;;12.18;;
65071;SDS011;51663;52.310;17.016;2022-08-19T13:19:06;15.55;;;12.65;;
65071;SDS011;51663;52.310;17.016;2022-08-19T13:22:08;14.07;;;12.77;;
65071;SDS011;51663;52.310;17.016;2022-08-19T13:25:16;20.20;;;12.88;;
65071;SDS011;51663;52.310;17.016;2022-08-19T13:28:20;14.95;;;13.48;;
65071;SDS011;51663;52.310;17.016;2022-08-19T13:31:30;15.10;;;13.70;;
65071;SDS011;51663;52.310;17.016;2022-08-19T13:34:53;16.60;;;11.95;;
65071;SDS011;51663;52.310;17.016;2022-08-19T13:37:54;15.07;;;13.70;;
65071;SDS011;51663;52.310;17.016;2022-08-19T13:40:57;15.20;;;13.07;;
65071;SDS011;51663;52.310;17.016;2022-08-19T13:44:13;14.75;;;13.10;;
65071;SDS011;51663;52.310;17.016;2022-08-19T13:47:16;13.70;;;12.50;;
65071;SDS011;51663;52.310;17.016;2022-08-19T13:50:22;15.45;;;13.70;;
65071;SDS011;51663;52.310;17.016;2022-08-19T13:53:30;14.65;;;13.25;;
65071;SDS011;51663;52.310;17.016;2022-08-19T13:56:32;17.15;;;15.30;;
65071;SDS011;51663;52.310;17.016;2022-08-19T13:59:35;16.48;;;13.68;;
65071;SDS011;51663;52.310;17.016;2022-08-19T14:02:37;16.33;;;14.75;;
65071;SDS011;51663;52.310;17.016;2022-08-19T14:05:40;15.07;;;13.00;;
65071;SDS011;51663;52.310;17.016;2022-08-19T14:08:42;16.40;;;15.02;;
65071;SDS011;51663;52.310;17.016;2022-08-19T14:11:47;15.55;;;14.27;;
65071;SDS011;51663;52.310;17.016;2022-08-19T14:14:49;14.70;;;13.60;;
65071;SDS011;51663;52.310;17.016;2022-08-19T14:17:51;15.80;;;14.38;;
65071;SDS011;51663;52.310;17.016;2022-08-19T14:20:53;16.27;;;14.80;;
65071;SDS011;51663;52.310;17.016;2022-08-19T14:23:56;17.30;;;14.73;;
65071;SDS011;51663;52.310;17.016;2022-08-19T14:26:59;16.75;;;15.00;;
65071;SDS011;51663;52.310;17.016;2022-08-19T14:30:02;17.08;;;15.38;;
65071;SDS011;51663;52.310;17.016;2022-08-19T14:33:05;18.95;;;14.88;;
65071;SDS011;51663;52.310;17.016;2022-08-19T14:36:09;18.65;;;15.20;;
65071;SDS011;51663;52.310;17.016;2022-08-19T14:39:18;16.25;;;14.63;;
65071;SDS011;51663;52.310;17.016;2022-08-19T14:42:20;17.90;;;16.27;;
65071;SDS011;51663;52.310;17.016;2022-08-19T14:45:22;17.45;;;15.98;;
65071;SDS011;51663;52.310;17.016;2022-08-19T14:48:25;17.95;;;16.20;;
65071;SDS011;51663;52.310;17.016;2022-08-19T14:51:29;17.20;;;15.63;;
65071;SDS011;51663;52.310;17.016;2022-08-19T14:54:32;18.55;;;16.85;;
65071;SDS011;51663;52.310;17.016;2022-08-19T14:57:35;17.35;;;15.68;;
65071;SDS011;51663;52.310;17.016;2022-08-19T15:00:38;21.35;;;17.27;;
65071;SDS011;51663;52.310;17.016;2022-08-19T15:03:40;23.35;;;16.50;;
65071;SDS011;51663;52.310;17.016;2022-08-19T15:06:42;18.05;;;16.23;;
65071;SDS011;51663;52.310;17.016;2022-08-19T15:09:44;31.23;;;20.58;;
65071;SDS011;51663;52.310;17.016;2022-08-19T15:12:52;37.50;;;23.20;;
65071;SDS011;51663;52.310;17.016;2022-08-19T15:15:57;27.45;;;18.00;;
65071;SDS011;51663;52.310;17.016;2022-08-19T15:19:20;22.65;;;16.58;;
65071;SDS011;51663;52.310;17.016;2022-08-19T15:22:22;20.85;;;16.77;;
65071;SDS011;51663;52.310;17.016;2022-08-19T15:25:24;18.02;;;16.20;;
65071;SDS011;51663;52.310;17.016;2022-08-19T15:28:26;17.55;;;15.73;;
65071;SDS011;51663;52.310;17.016;2022-08-19T15:31:29;16.92;;;15.23;;
65071;SDS011;51663;52.310;17.016;2022-08-19T15:34:39;16.35;;;14.70;;
65071;SDS011;51663;52.310;17.016;2022-08-19T15:37:41;16.73;;;15.05;;
65071;SDS011;51663;52.310;17.016;2022-08-19T15:40:43;15.18;;;13.77;;
65071;SDS011;51663;52.310;17.016;2022-08-19T15:43:46;18.00;;;14.63;;
65071;SDS011;51663;52.310;17.016;2022-08-19T15:46:49;15.13;;;13.52;;
65071;SDS011;51663;52.310;17.016;2022-08-19T15:49:51;14.50;;;13.23;;
65071;SDS011;51663;52.310;17.016;2022-08-19T15:53:00;14.30;;;12.73;;
65071;SDS011;51663;52.310;17.016;2022-08-19T15:56:05;14.82;;;13.65;;
65071;SDS011;51663;52.310;17.016;2022-08-19T15:59:07;14.63;;;13.27;;
65071;SDS011;51663;52.310;17.016;2022-08-19T16:02:27;14.95;;;13.27;;
65071;SDS011;51663;52.310;17.016;2022-08-19T16:05:49;15.55;;;13.95;;
65071;SDS011;51663;52.310;17.016;2022-08-19T16:09:10;14.98;;;13.40;;
65071;SDS011;51663;52.310;17.016;2022-08-19T16:12:13;16.85;;;13.90;;
65071;SDS011;51663;52.310;17.016;2022-08-19T16:15:17;14.40;;;13.10;;
65071;SDS011;51663;52.310;17.016;2022-08-19T16:18:21;14.05;;;12.75;;
65071;SDS011;51663;52.310;17.016;2022-08-19T16:21:24;13.63;;;12.45;;
65071;SDS011;51663;52.310;17.016;2022-08-19T16:24:27;14.05;;;12.75;;
65071;SDS011;51663;52.310;17.016;2022-08-19T16:27:30;14.70;;;12.45;;
65071;SDS011;51663;52.310;17.016;2022-08-19T16:30:32;16.65;;;13.30;;
65071;SDS011;51663;52.310;17.016;2022-08-19T16:33:34;16.73;;;13.45;;
65071;SDS011;51663;52.310;17.016;2022-08-19T16:36:36;14.23;;;12.93;;
65071;SDS011;51663;52.310;17.016;2022-08-19T16:39:43;17.38;;;15.50;;
65071;SDS011;51663;52.310;17.016;2022-08-19T16:42:45;17.27;;;15.48;;
65071;SDS011;51663;52.310;17.016;2022-08-19T16:45:48;19.83;;;16.92;;
65071;SDS011;51663;52.310;17.016;2022-08-19T16:48:53;19.27;;;16.35;;
65071;SDS011;51663;52.310;17.016;2022-08-19T16:51:55;18.42;;;16.40;;
65071;SDS011;51663;52.310;17.016;2022-08-19T16:54:57;17.88;;;16.25;;
65071;SDS011;51663;52.310;17.016;2022-08-19T16:58:00;18.65;;;16.67;;
65071;SDS011;51663;52.310;17.016;2022-08-19T17:01:06;18.05;;;16.23;;
65071;SDS011;51663;52.310;17.016;2022-08-19T17:04:10;19.20;;;16.52;;
65071;SDS011;51663;52.310;17.016;2022-08-19T17:07:13;20.35;;;18.35;;
65071;SDS011;51663;52.310;17.016;2022-08-19T17:10:16;22.20;;;19.85;;
65071;SDS011;51663;52.310;17.016;2022-08-19T17:13:18;20.13;;;18.15;;
65071;SDS011;51663;52.310;17.016;2022-08-19T17:16:23;21.98;;;19.40;;
65071;SDS011;51663;52.310;17.016;2022-08-19T17:19:28;23.30;;;20.80;;
65071;SDS011;51663;52.310;17.016;2022-08-19T17:22:30;22.52;;;19.92;;
65071;SDS011;51663;52.310;17.016;2022-08-19T17:25:33;25.08;;;21.65;;
65071;SDS011;51663;52.310;17.016;2022-08-19T17:28:35;23.75;;;21.25;;
65071;SDS011;51663;52.310;17.016;2022-08-19T17:31:37;23.48;;;20.88;;
65071;SDS011;51663;52.310;17.016;2022-08-19T17:34:42;23.52;;;20.88;;
65071;SDS011;51663;52.310;17.016;2022-08-19T17:37:44;26.35;;;22.02;;
65071;SDS011;51663;52.310;17.016;2022-08-19T17:40:51;25.20;;;22.48;;
65071;SDS011;51663;52.310;17.016;2022-08-19T17:43:56;27.73;;;22.60;;
65071;SDS011;51663;52.310;17.016;2022-08-19T17:46:58;26.80;;;21.27;;
65071;SDS011;51663;52.310;17.016;2022-08-19T17:50:00;23.55;;;21.15;;
65071;SDS011;51663;52.310;17.016;2022-08-19T17:53:04;23.98;;;21.40;;
65071;SDS011;51663;52.310;17.016;2022-08-19T17:56:14;24.58;;;20.92;;